Terminal Aerodrome Forecast
Issued by NWS Twin Cities, MN

Home | Current Version | Previous Version | Text Only | Print | Product List | Glossary Off
Versions: 1 2 3 4 5 6 7 8 9 10 11 12 13 14 15 16 17 18 19 20

663
FTUS43 KMPX 121140
TAFSTC
TAF
KSTC 121140Z 1212/1312 29005KT P6SM OVC070
     FM121600 21007KT P6SM OVC020
     FM130100 16007KT P6SM BKN015
      TEMPO 1305/1309 BKN035
     FM131000 30007KT P6SM VCSH OVC015=

USA.gov is the U.S. government's official web portal to all federal, state and local government web resources and services.